Impacts TAF Board INFO
FOR SITUATIONAL AWARENESS. NOT TO BE USED FOR FLIGHT PLANNING PURPOSES.
IDs:

KPIT - Pittsburgh Intl, PA, US

Issued at 2104 UTC 19 Jun 2018
Updated at 2204 UTC 19 Jun 2018
Potential Impact None Slight Moderate High
Time<<20/11Z 20/12Z 20/13Z 20/14Z 20/15Z 20/16Z 20/17Z 20/18Z 20/19Z 20/20Z 20/21Z 20/22Z 20/23Z>>
Type PRVL PRVL PRVL PRVL PRVL PRVL PRVL PRVL PRVL PRVL PRVL PRVL PRVL
VIS 6 6 6 6 6 >6 >6 >6 >6 >6 >6 >6 >6
CIG 25 25 25 25 25 25 25 25 25 25 25 25 25
Cover OVC OVC OVC OVC OVC BKN BKN BKN BKN BKN BKN BKN BKN
FltCat MVFR MVFR MVFR MVFR MVFR MVFR MVFR MVFR MVFR MVFR MVFR MVFR MVFR
WX -RA VCTS -RA VCTS -RA VCTS -RA VCTS -RA VCTS -- -- -- -- VCTS VCTS VCTS VCTS
WDir VRB VRB VRB VRB VRB 310 310 310 310 VRB VRB VRB VRB
WSpd 3 3 3 3 3 5 5 5 5 5 5 5 5
WGst -- -- -- -- -- -- -- -- -- -- -- -- --

Raw TAF
KPIT 192104Z 1921/2024 33005KT P6SM BKN035
  FM201000 VRB03KT 6SM -RA VCTS OVC025CB
  FM201600 31005KT P6SM BKN025
  FM202000 VRB05KT P6SM VCTS BKN025CB


METAR Board
Radar Display
Forecast Discussion

FOR SITUATIONAL AWARENESS. NOT TO BE USED FOR FLIGHT PLANNING PURPOSES.